M I D A S
Marine Information and Data Acquisition System
Tripno 1447 of the Zeeleeuw from 2008-03-28 07:28:51 to 2008-03-28 13:09:42
Back to CruiseResearch ActivitiesStationsMapUnderway DataData graphs

EquipmentUnitsComment
TimeDGPSUTC
LatitudeDGPSDM.mWGS84
LongitudeDGPSDM.mWGS84
HeadingGyrodeg 
SOGDGPSknotsSpeed over ground
COGDGPSdegCourse over ground
DepthEcho soundermeters200 kHz
Missing or incorrect values are displayed as -999
Navigation data collected by the RV Zeeleeuw from 2008-03-28 06:49:31 to 2008-03-28 13:15:27
                                                                                    Next 1000 lines
Time Latitude Longitude Heading SOG COG Depth
2008-03-28 06:49:41 51°13.666 2°55.954 126.3 -999 338 -999
2008-03-28 06:49:46 51°13.666 2°55.954 126.3 -999 14 -999
2008-03-28 06:49:50 51°13.666 2°55.955 126.3 -999 325 -999
2008-03-28 06:49:56 51°13.666 2°55.955 126.3 -999 43 -999
2008-03-28 06:50:01 51°13.666 2°55.955 126.3 -999 351 -999
2008-03-28 06:50:06 51°13.665 2°55.955 126.3 -999 251 -999
2008-03-28 06:50:11 51°13.665 2°55.955 126.3 -999 75 -999
2008-03-28 06:50:17 51°13.665 2°55.955 126.3 -999 94 -999
2008-03-28 06:50:22 51°13.665 2°55.955 126.3 -999 59 -999
2008-03-28 06:50:27 51°13.666 2°55.955 126.3 -999 64 -999
2008-03-28 06:50:31 51°13.666 2°55.955 126.3 -999 295 -999
2008-03-28 06:50:36 51°13.666 2°55.955 126.3 -999 105 -999
2008-03-28 06:50:42 51°13.666 2°55.955 126.3 -999 136 -999
2008-03-28 06:50:47 51°13.666 2°55.956 126.4 -999 38 -999
2008-03-28 06:50:51 51°13.666 2°55.956 126.4 -999 97 -999
2008-03-28 06:50:57 51°13.666 2°55.955 126.4 -999 31 -999
2008-03-28 06:51:01 51°13.666 2°55.955 126.4 -999 116 -999
2008-03-28 06:51:07 51°13.665 2°55.955 126.4 -999 33 -999
2008-03-28 06:51:11 51°13.665 2°55.955 126.4 -999 235 -999
2008-03-28 06:51:17 51°13.665 2°55.955 126.4 -999 217 -999
2008-03-28 06:51:21 51°13.665 2°55.955 126.4 -999 123 -999
2008-03-28 06:51:26 51°13.665 2°55.955 126.4 -999 95 -999
2008-03-28 06:51:31 51°13.665 2°55.955 126.4 -999 271 -999
2008-03-28 06:51:36 51°13.665 2°55.955 126.4 -999 306 -999
2008-03-28 06:51:41 51°13.665 2°55.955 126.4 -999 79 -999
2008-03-28 06:51:46 51°13.665 2°55.955 126.4 -999 253 -999
2008-03-28 06:51:51 51°13.665 2°55.955 126.4 -999 357 -999
2008-03-28 06:51:57 51°13.665 2°55.954 126.4 -999 63 -999
2008-03-28 06:52:01 51°13.665 2°55.954 126.4 -999 59 -999
2008-03-28 06:52:06 51°13.665 2°55.954 126.4 -999 111 -999
2008-03-28 06:52:12 51°13.665 2°55.954 126.5 -999 34 -999
2008-03-28 06:52:16 51°13.665 2°55.954 126.7 -999 243 -999
2008-03-28 06:52:21 51°13.665 2°55.954 126.8 -999 333 -999
2008-03-28 06:52:26 51°13.665 2°55.954 126.7 -999 97 -999
2008-03-28 06:52:31 51°13.665 2°55.954 126.6 -999 82 -999
2008-03-28 06:52:37 51°13.665 2°55.954 126.6 -999 81 -999
2008-03-28 06:52:42 51°13.665 2°55.954 126.6 -999 88 -999
2008-03-28 06:52:46 51°13.665 2°55.954 126.6 -999 229 -999
2008-03-28 06:52:52 51°13.665 2°55.954 126.6 -999 251 -999
2008-03-28 06:52:57 51°13.666 2°55.954 126.6 -999 267 -999
2008-03-28 06:53:01 51°13.666 2°55.955 126.6 -999 116 -999
2008-03-28 06:53:06 51°13.665 2°55.954 126.6 -999 302 -999
2008-03-28 06:53:11 51°13.665 2°55.954 126.6 -999 4 -999
2008-03-28 06:53:16 51°13.665 2°55.954 126.6 -999 138 -999
2008-03-28 06:53:21 51°13.665 2°55.954 126.6 -999 90 -999
2008-03-28 06:53:26 51°13.665 2°55.954 126.6 -999 273 -999
2008-03-28 06:53:32 51°13.665 2°55.954 126.6 -999 332 -999
2008-03-28 06:53:36 51°13.665 2°55.954 126.6 -999 338 -999
2008-03-28 06:53:41 51°13.665 2°55.954 126.6 -999 18 -999
2008-03-28 06:53:46 51°13.665 2°55.954 126.6 -999 170 -999
2008-03-28 06:53:51 51°13.665 2°55.954 126.6 -999 278 -999
2008-03-28 06:53:57 51°13.665 2°55.954 126.6 -999 74 -999
2008-03-28 06:54:02 51°13.666 2°55.954 126.6 -999 258 -999
2008-03-28 06:54:06 51°13.666 2°55.954 126.6 -999 296 -999
2008-03-28 06:54:11 51°13.666 2°55.954 126.6 -999 262 -999
2008-03-28 06:54:17 51°13.666 2°55.954 126.6 -999 273 -999
2008-03-28 06:54:21 51°13.666 2°55.954 126.6 -999 289 -999
2008-03-28 06:54:27 51°13.666 2°55.954 126.6 -999 253 -999
2008-03-28 06:54:32 51°13.666 2°55.954 126.5 -999 251 -999
2008-03-28 06:54:36 51°13.666 2°55.954 126.5 -999 34 -999
2008-03-28 06:54:42 51°13.666 2°55.954 126.5 -999 291 -999
2008-03-28 06:54:47 51°13.666 2°55.954 126.5 -999 144 -999
2008-03-28 06:54:51 51°13.666 2°55.954 126.5 -999 269 -999
2008-03-28 06:54:56 51°13.666 2°55.954 126.5 -999 32 -999
2008-03-28 06:55:01 51°13.666 2°55.954 126.5 -999 31 -999
2008-03-28 06:55:06 51°13.666 2°55.954 126.5 -999 359 -999
2008-03-28 06:55:11 51°13.666 2°55.954 126.5 -999 225 -999
2008-03-28 06:55:16 51°13.666 2°55.954 126.6 -999 185 -999
2008-03-28 06:55:21 51°13.666 2°55.954 126.7 -999 144 -999
2008-03-28 06:55:26 51°13.666 2°55.954 126.9 0.1 188 -999
2008-03-28 06:55:31 51°13.666 2°55.954 126.9 -999 226 -999
2008-03-28 06:55:36 51°13.666 2°55.954 126.9 -999 174 -999
2008-03-28 06:55:41 51°13.666 2°55.954 126.8 -999 156 -999
2008-03-28 06:55:46 51°13.666 2°55.954 126.5 -999 56 -999
2008-03-28 06:55:52 51°13.665 2°55.953 126.2 -999 294 -999
2008-03-28 06:55:56 51°13.665 2°55.953 126.2 0.1 281 -999
2008-03-28 06:56:02 51°13.665 2°55.953 126.2 -999 243 -999
2008-03-28 06:56:07 51°13.666 2°55.953 126.2 -999 183 -999
2008-03-28 06:56:11 51°13.665 2°55.953 126.3 -999 112 -999
2008-03-28 06:56:17 51°13.666 2°55.953 126.3 -999 124 -999
2008-03-28 06:56:21 51°13.666 2°55.953 126.3 -999 52 -999
2008-03-28 06:56:26 51°13.666 2°55.953 126.3 -999 290 -999
2008-03-28 06:56:31 51°13.665 2°55.953 126.3 -999 2 -999
2008-03-28 06:56:37 51°13.665 2°55.953 126.2 -999 306 -999
2008-03-28 06:56:41 51°13.665 2°55.953 126.2 -999 307 -999
2008-03-28 06:56:46 51°13.665 2°55.953 126.2 -999 291 -999
2008-03-28 06:56:51 51°13.665 2°55.953 126.2 -999 270 -999
2008-03-28 06:56:56 51°13.665 2°55.953 126.1 -999 64 -999
2008-03-28 06:57:01 51°13.665 2°55.953 126.1 -999 136 -999
2008-03-28 06:57:06 51°13.665 2°55.953 126.1 -999 287 -999
2008-03-28 06:57:11 51°13.665 2°55.953 126.1 -999 191 -999
2008-03-28 06:57:16 51°13.665 2°55.953 126.1 -999 132 -999
2008-03-28 06:57:22 51°13.665 2°55.953 126.1 -999 59 -999
2008-03-28 06:57:27 51°13.665 2°55.953 126 -999 63 -999
2008-03-28 06:57:31 51°13.665 2°55.953 125.8 -999 327 -999
2008-03-28 06:57:37 51°13.665 2°55.953 125.6 -999 33 -999
2008-03-28 06:57:41 51°13.665 2°55.953 125.6 -999 256 -999
2008-03-28 06:57:47 51°13.665 2°55.953 125.6 -999 189 -999
2008-03-28 06:57:51 51°13.665 2°55.953 125.7 -999 145 -999
2008-03-28 06:57:57 51°13.665 2°55.953 125.7 -999 118 -999
2008-03-28 06:58:01 51°13.665 2°55.953 126 -999 185 -999
2008-03-28 06:58:07 51°13.665 2°55.953 126.1 -999 99 -999
2008-03-28 06:58:11 51°13.665 2°55.953 126.1 -999 209 -999
2008-03-28 06:58:17 51°13.665 2°55.953 126.1 -999 7 -999
2008-03-28 06:58:21 51°13.665 2°55.953 126 -999 8 -999
2008-03-28 06:58:26 51°13.665 2°55.953 125.8 -999 314 -999
2008-03-28 06:58:32 51°13.665 2°55.953 125.6 0.1 295 -999
2008-03-28 06:58:36 51°13.665 2°55.953 125.5 -999 332 -999
2008-03-28 06:58:41 51°13.665 2°55.953 125.5 -999 98 -999
2008-03-28 06:58:47 51°13.665 2°55.953 125.5 -999 118 -999
2008-03-28 06:58:51 51°13.665 2°55.953 125.5 -999 92 -999
2008-03-28 06:58:56 51°13.665 2°55.953 125.5 -999 152 -999
2008-03-28 06:59:01 51°13.665 2°55.953 125.5 -999 243 -999
2008-03-28 06:59:06 51°13.665 2°55.953 125.6 -999 95 -999
2008-03-28 06:59:12 51°13.665 2°55.953 125.6 -999 314 -999
2008-03-28 06:59:16 51°13.665 2°55.953 125.6 -999 257 -999
2008-03-28 06:59:22 51°13.665 2°55.953 125.6 -999 188 -999
2008-03-28 06:59:27 51°13.665 2°55.953 125.6 -999 131 -999
2008-03-28 06:59:31 51°13.665 2°55.953 125.6 -999 135 -999
2008-03-28 06:59:37 51°13.665 2°55.953 125.7 -999 298 -999
2008-03-28 06:59:42 51°13.665 2°55.953 125.8 -999 192 -999
2008-03-28 06:59:47 51°13.665 2°55.953 125.9 -999 209 -999
2008-03-28 06:59:52 51°13.665 2°55.953 126 -999 187 -999
2008-03-28 06:59:56 51°13.665 2°55.953 126 -999 77 -999
2008-03-28 07:00:01 51°13.665 2°55.953 126.1 -999 94 -999
2008-03-28 07:00:06 51°13.665 2°55.953 126.1 -999 9 -999
2008-03-28 07:00:11 51°13.665 2°55.953 126.2 -999 39 -999
2008-03-28 07:00:17 51°13.665 2°55.953 126.2 -999 242 -999
2008-03-28 07:00:21 51°13.665 2°55.953 126.3 -999 4 -999
2008-03-28 07:00:26 51°13.665 2°55.953 126.4 -999 85 -999
2008-03-28 07:00:32 51°13.665 2°55.953 126.6 -999 359 -999
2008-03-28 07:00:36 51°13.665 2°55.953 126.7 -999 104 -999
2008-03-28 07:00:41 51°13.665 2°55.953 126.8 -999 261 -999
2008-03-28 07:00:46 51°13.665 2°55.953 126.8 -999 199 -999
2008-03-28 07:00:52 51°13.665 2°55.953 126.8 -999 109 -999
2008-03-28 07:00:57 51°13.665 2°55.953 126.8 -999 354 -999
2008-03-28 07:01:02 51°13.665 2°55.953 126.8 -999 214 -999
2008-03-28 07:01:06 51°13.665 2°55.953 126.9 -999 178 -999
2008-03-28 07:01:12 51°13.665 2°55.953 126.9 -999 222 -999
2008-03-28 07:01:17 51°13.665 2°55.953 126.9 -999 149 -999
2008-03-28 07:01:21 51°13.665 2°55.953 126.9 -999 190 -999
2008-03-28 07:01:26 51°13.665 2°55.953 127.1 -999 174 -999
2008-03-28 07:01:31 51°13.665 2°55.953 127.1 -999 198 -999
2008-03-28 07:01:36 51°13.665 2°55.953 127.1 -999 333 -999
2008-03-28 07:01:42 51°13.665 2°55.953 127.1 -999 258 -999
2008-03-28 07:01:47 51°13.665 2°55.953 127.1 -999 11 -999
2008-03-28 07:01:52 51°13.665 2°55.953 127.1 -999 11 -999
2008-03-28 07:01:56 51°13.665 2°55.953 127.1 -999 355 -999
2008-03-28 07:02:02 51°13.665 2°55.953 127 -999 43 -999
2008-03-28 07:02:06 51°13.665 2°55.953 126.9 -999 21 -999
2008-03-28 07:02:11 51°13.665 2°55.953 126.9 -999 289 -999
2008-03-28 07:02:16 51°13.665 2°55.953 126.8 -999 130 -999
2008-03-28 07:02:22 51°13.665 2°55.953 126.8 -999 19 -999
2008-03-28 07:02:26 51°13.665 2°55.953 126.7 -999 67 -999
2008-03-28 07:02:31 51°13.665 2°55.953 126.6 -999 29 -999
2008-03-28 07:02:37 51°13.665 2°55.953 126.4 -999 39 -999
2008-03-28 07:02:41 51°13.665 2°55.953 126.3 -999 96 -999
2008-03-28 07:02:46 51°13.665 2°55.953 126.2 -999 195 -999
2008-03-28 07:02:52 51°13.665 2°55.953 126.2 -999 41 -999
2008-03-28 07:02:56 51°13.665 2°55.953 126.1 -999 275 -999
2008-03-28 07:03:01 51°13.665 2°55.953 126 -999 258 -999
2008-03-28 07:03:07 51°13.665 2°55.953 126 -999 316 -999
2008-03-28 07:03:11 51°13.665 2°55.953 126 -999 43 -999
2008-03-28 07:03:17 51°13.665 2°55.953 126 -999 12 -999
2008-03-28 07:03:21 51°13.665 2°55.953 126.1 -999 264 -999
2008-03-28 07:03:26 51°13.665 2°55.953 126.1 -999 75 -999
2008-03-28 07:03:32 51°13.665 2°55.953 126.1 -999 34 -999
2008-03-28 07:03:36 51°13.665 2°55.953 126.1 -999 226 -999
2008-03-28 07:03:41 51°13.665 2°55.953 126.1 -999 75 -999
2008-03-28 07:03:46 51°13.666 2°55.953 126.1 -999 183 -999
2008-03-28 07:03:51 51°13.666 2°55.953 126.1 -999 138 -999
2008-03-28 07:03:57 51°13.666 2°55.953 126.1 -999 357 -999
2008-03-28 07:04:02 51°13.666 2°55.953 126.1 -999 74 -999
2008-03-28 07:04:06 51°13.666 2°55.953 126.1 -999 352 -999
2008-03-28 07:04:12 51°13.666 2°55.953 126 -999 102 -999
2008-03-28 07:04:16 51°13.666 2°55.953 126 -999 47 -999
2008-03-28 07:04:22 51°13.666 2°55.953 126.1 -999 237 -999
2008-03-28 07:04:27 51°13.666 2°55.953 126.2 -999 6 -999
2008-03-28 07:04:31 51°13.666 2°55.953 126.2 -999 132 -999
2008-03-28 07:04:37 51°13.666 2°55.953 126.4 -999 40 -999
2008-03-28 07:04:42 51°13.666 2°55.953 126.5 -999 237 -999
2008-03-28 07:04:46 51°13.666 2°55.953 126.5 -999 244 -999
2008-03-28 07:04:52 51°13.666 2°55.953 126.5 -999 74 -999
2008-03-28 07:04:56 51°13.666 2°55.953 126.6 -999 31 -999
2008-03-28 07:05:01 51°13.666 2°55.953 126.6 -999 89 -999
2008-03-28 07:05:06 51°13.666 2°55.953 126.5 -999 291 -999
2008-03-28 07:05:11 51°13.666 2°55.953 126.4 -999 162 -999
2008-03-28 07:05:16 51°13.666 2°55.953 126.2 -999 244 -999
2008-03-28 07:05:22 51°13.666 2°55.953 126.2 -999 350 -999
2008-03-28 07:05:26 51°13.666 2°55.953 126.2 -999 255 -999
2008-03-28 07:05:32 51°13.666 2°55.953 126.1 -999 230 -999
2008-03-28 07:05:36 51°13.666 2°55.953 126.1 -999 178 -999
2008-03-28 07:05:42 51°13.666 2°55.953 126 -999 290 -999
2008-03-28 07:05:46 51°13.666 2°55.953 126 -999 243 -999
2008-03-28 07:05:51 51°13.666 2°55.953 126 -999 218 -999
2008-03-28 07:05:57 51°13.666 2°55.953 126.1 -999 208 -999
2008-03-28 07:06:02 51°13.666 2°55.953 126.1 -999 232 -999
2008-03-28 07:06:07 51°13.666 2°55.953 126.1 -999 177 -999
2008-03-28 07:06:11 51°13.666 2°55.953 126.1 -999 53 -999
2008-03-28 07:06:16 51°13.665 2°55.953 126.1 -999 267 -999
2008-03-28 07:06:21 51°13.665 2°55.953 126.1 -999 344 -999
2008-03-28 07:06:26 51°13.665 2°55.953 126.1 -999 3 -999
2008-03-28 07:06:31 51°13.665 2°55.953 126 -999 294 -999
2008-03-28 07:06:36 51°13.665 2°55.953 125.9 -999 186 -999
2008-03-28 07:06:42 51°13.665 2°55.953 125.9 -999 318 -999
2008-03-28 07:06:47 51°13.665 2°55.953 125.9 -999 274 -999
2008-03-28 07:06:51 51°13.665 2°55.953 125.9 -999 62 -999
2008-03-28 07:06:56 51°13.665 2°55.953 125.9 -999 310 -999
2008-03-28 07:07:01 51°13.665 2°55.953 125.9 -999 265 -999
2008-03-28 07:07:06 51°13.665 2°55.953 125.9 -999 249 -999
2008-03-28 07:07:11 51°13.665 2°55.953 125.9 -999 222 -999
2008-03-28 07:07:17 51°13.665 2°55.953 126 -999 216 -999
2008-03-28 07:07:21 51°13.665 2°55.953 126 -999 199 -999
2008-03-28 07:07:27 51°13.665 2°55.953 126.1 -999 111 -999
2008-03-28 07:07:32 51°13.665 2°55.953 126.2 -999 229 -999
2008-03-28 07:07:37 51°13.665 2°55.953 126.2 -999 65 -999
2008-03-28 07:07:42 51°13.665 2°55.953 126.2 -999 268 -999
2008-03-28 07:07:46 51°13.665 2°55.953 126.2 -999 359 -999
2008-03-28 07:07:52 51°13.665 2°55.953 126.2 -999 18 -999
2008-03-28 07:07:56 51°13.665 2°55.953 126.2 -999 230 -999
2008-03-28 07:08:01 51°13.665 2°55.953 126.2 -999 187 -999
2008-03-28 07:08:08 51°13.665 2°55.953 126.2 -999 59 -999
2008-03-28 07:08:11 51°13.665 2°55.953 126.2 -999 25 -999
2008-03-28 07:08:17 51°13.665 2°55.953 126.2 -999 234 -999
2008-03-28 07:08:21 51°13.665 2°55.953 126.2 -999 253 -999
2008-03-28 07:08:26 51°13.665 2°55.953 126.2 -999 297 -999
2008-03-28 07:08:32 51°13.665 2°55.953 126.1 -999 300 -999
2008-03-28 07:08:36 51°13.665 2°55.953 126.1 -999 257 -999
2008-03-28 07:08:41 51°13.665 2°55.953 126.1 -999 96 -999
2008-03-28 07:08:47 51°13.665 2°55.953 126.1 -999 272 -999
2008-03-28 07:08:51 51°13.665 2°55.953 126.1 -999 321 -999
2008-03-28 07:08:57 51°13.665 2°55.953 126.2 -999 222 -999
2008-03-28 07:09:02 51°13.665 2°55.953 126.2 -999 102 -999
2008-03-28 07:09:07 51°13.665 2°55.954 126.2 -999 280 -999
2008-03-28 07:09:12 51°13.665 2°55.954 126.3 -999 147 -999
2008-03-28 07:09:16 51°13.665 2°55.954 126.3 -999 180 -999
2008-03-28 07:09:21 51°13.665 2°55.954 126.3 -999 237 -999
2008-03-28 07:09:26 51°13.665 2°55.954 126.3 -999 227 -999
2008-03-28 07:09:31 51°13.665 2°55.954 126.2 -999 50 -999
2008-03-28 07:09:36 51°13.665 2°55.954 126.2 -999 131 -999
2008-03-28 07:09:42 51°13.665 2°55.954 126.2 -999 64 -999
2008-03-28 07:09:46 51°13.665 2°55.954 126.1 -999 225 -999
2008-03-28 07:09:52 51°13.665 2°55.954 126.1 -999 309 -999
2008-03-28 07:09:56 51°13.665 2°55.954 126.1 -999 284 -999
2008-03-28 07:10:02 51°13.665 2°55.954 126.1 -999 62 -999
2008-03-28 07:10:06 51°13.665 2°55.954 126.1 -999 44 -999
2008-03-28 07:10:12 51°13.666 2°55.954 126.1 -999 298 -999
2008-03-28 07:10:17 51°13.666 2°55.954 126.2 -999 333 -999
2008-03-28 07:10:21 51°13.666 2°55.954 126.3 -999 257 -999
2008-03-28 07:10:26 51°13.666 2°55.954 126.4 -999 200 -999
2008-03-28 07:10:32 51°13.666 2°55.954 126.5 -999 199 -999
2008-03-28 07:10:36 51°13.666 2°55.954 126.5 -999 10 -999
2008-03-28 07:10:41 51°13.666 2°55.954 126.6 -999 132 -999
2008-03-28 07:10:47 51°13.666 2°55.954 126.6 -999 143 -999
2008-03-28 07:10:51 51°13.666 2°55.954 126.6 -999 250 -999
2008-03-28 07:10:56 51°13.666 2°55.954 126.6 -999 77 -999
2008-03-28 07:11:02 51°13.666 2°55.954 126.6 -999 205 -999
2008-03-28 07:11:07 51°13.666 2°55.954 126.5 -999 245 -999
2008-03-28 07:11:12 51°13.666 2°55.954 126.5 -999 105 -999
2008-03-28 07:11:17 51°13.666 2°55.954 126.6 -999 302 -999
2008-03-28 07:11:21 51°13.666 2°55.953 126.6 -999 295 -999
2008-03-28 07:11:26 51°13.666 2°55.953 126.6 -999 48 -999
2008-03-28 07:11:31 51°13.666 2°55.953 126.6 -999 65 -999
2008-03-28 07:11:36 51°13.666 2°55.953 126.6 -999 151 -999
2008-03-28 07:11:42 51°13.666 2°55.953 126.7 -999 51 -999
2008-03-28 07:11:47 51°13.666 2°55.953 126.7 -999 66 -999
2008-03-28 07:11:52 51°13.666 2°55.953 126.7 -999 236 -999
2008-03-28 07:11:56 51°13.666 2°55.953 126.7 -999 169 -999
2008-03-28 07:12:01 51°13.666 2°55.953 126.7 -999 297 -999
2008-03-28 07:12:06 51°13.666 2°55.953 126.7 -999 257 -999
2008-03-28 07:12:11 51°13.666 2°55.953 126.7 -999 245 -999
2008-03-28 07:12:16 51°13.666 2°55.953 126.7 -999 273 -999
2008-03-28 07:12:22 51°13.666 2°55.953 126.7 -999 268 -999
2008-03-28 07:12:27 51°13.666 2°55.953 126.6 -999 229 -999
2008-03-28 07:12:31 51°13.666 2°55.953 126.5 -999 45 -999
2008-03-28 07:12:37 51°13.666 2°55.953 126.4 -999 259 -999
2008-03-28 07:12:41 51°13.666 2°55.953 126.2 -999 356 -999
2008-03-28 07:12:46 51°13.666 2°55.953 126.2 -999 194 -999
2008-03-28 07:12:52 51°13.666 2°55.953 126.2 -999 298 -999
2008-03-28 07:12:56 51°13.666 2°55.953 126.2 -999 212 -999
2008-03-28 07:13:01 51°13.666 2°55.953 126.2 -999 241 -999
2008-03-28 07:13:07 51°13.666 2°55.953 126.2 -999 234 -999
2008-03-28 07:13:11 51°13.666 2°55.953 126.2 -999 325 -999
2008-03-28 07:13:18 51°13.666 2°55.953 126.1 -999 241 -999
2008-03-28 07:13:21 51°13.666 2°55.953 126 -999 290 -999
2008-03-28 07:13:26 51°13.666 2°55.953 126 -999 250 -999
2008-03-28 07:13:32 51°13.666 2°55.953 126 -999 202 -999
2008-03-28 07:13:36 51°13.666 2°55.953 126 -999 153 -999
2008-03-28 07:13:41 51°13.666 2°55.953 126 -999 21 -999
2008-03-28 07:13:47 51°13.666 2°55.953 126 -999 312 -999
2008-03-28 07:13:51 51°13.666 2°55.953 126 -999 45 -999
2008-03-28 07:13:57 51°13.666 2°55.953 126 -999 288 -999
2008-03-28 07:14:02 51°13.666 2°55.953 126 -999 264 -999
2008-03-28 07:14:06 51°13.666 2°55.953 126.1 -999 196 -999
2008-03-28 07:14:12 51°13.666 2°55.953 126.1 -999 329 -999
2008-03-28 07:14:17 51°13.666 2°55.953 126.1 -999 284 -999
2008-03-28 07:14:21 51°13.666 2°55.953 126.1 -999 5 -999
2008-03-28 07:14:27 51°13.666 2°55.953 126 -999 126 -999
2008-03-28 07:14:32 51°13.666 2°55.953 126 -999 105 -999
2008-03-28 07:14:37 51°13.666 2°55.953 125.9 -999 247 -999
2008-03-28 07:14:42 51°13.666 2°55.954 125.9 -999 204 -999
2008-03-28 07:14:46 51°13.667 2°55.954 125.9 -999 268 -999
2008-03-28 07:14:52 51°13.667 2°55.954 125.9 -999 284 -999
2008-03-28 07:14:56 51°13.667 2°55.954 125.9 -999 330 -999
2008-03-28 07:15:01 51°13.667 2°55.954 125.9 -999 353 -999
2008-03-28 07:15:07 51°13.667 2°55.954 126 -999 280 -999
2008-03-28 07:15:12 51°13.667 2°55.954 126 -999 298 -999
2008-03-28 07:15:17 51°13.666 2°55.954 126 -999 33 -999
2008-03-28 07:15:22 51°13.666 2°55.953 126 -999 123 -999
2008-03-28 07:15:27 51°13.666 2°55.953 126 -999 35 -999
2008-03-28 07:15:32 51°13.666 2°55.953 126 -999 18 -999
2008-03-28 07:15:37 51°13.666 2°55.953 126.1 -999 248 -999
2008-03-28 07:15:42 51°13.667 2°55.953 126.1 -999 155 -999
2008-03-28 07:15:47 51°13.667 2°55.954 126.1 -999 202 -999
2008-03-28 07:15:52 51°13.667 2°55.954 126.1 -999 147 -999
2008-03-28 07:15:57 51°13.667 2°55.954 126.1 -999 174 -999
2008-03-28 07:16:02 51°13.667 2°55.954 126 -999 296 -999
2008-03-28 07:16:07 51°13.667 2°55.954 126 -999 254 -999
2008-03-28 07:16:12 51°13.667 2°55.954 126 -999 302 -999
2008-03-28 07:16:17 51°13.667 2°55.954 126 -999 258 -999
2008-03-28 07:16:22 51°13.667 2°55.954 126 -999 93 -999
2008-03-28 07:16:27 51°13.667 2°55.954 126.1 -999 212 -999
2008-03-28 07:16:32 51°13.667 2°55.954 126.2 -999 195 -999
2008-03-28 07:16:37 51°13.667 2°55.954 126.2 -999 76 -999
2008-03-28 07:16:42 51°13.667 2°55.954 126.3 -999 94 -999
2008-03-28 07:16:47 51°13.667 2°55.955 126.4 -999 42 -999
2008-03-28 07:16:52 51°13.667 2°55.955 126.4 -999 287 -999
2008-03-28 07:16:57 51°13.667 2°55.955 126.4 -999 155 -999
2008-03-28 07:17:02 51°13.667 2°55.955 126.4 -999 359 -999
2008-03-28 07:17:07 51°13.667 2°55.955 126.4 -999 175 -999
2008-03-28 07:17:12 51°13.667 2°55.955 126.4 -999 274 -999
2008-03-28 07:17:17 51°13.667 2°55.955 126.4 -999 226 -999
2008-03-28 07:17:22 51°13.667 2°55.955 126.3 -999 49 -999
2008-03-28 07:17:27 51°13.667 2°55.954 126.2 -999 233 -999
2008-03-28 07:17:32 51°13.667 2°55.954 126.2 -999 261 -999
2008-03-28 07:17:37 51°13.667 2°55.954 126.2 -999 261 -999
2008-03-28 07:17:42 51°13.667 2°55.954 126.1 -999 271 -999
2008-03-28 07:17:47 51°13.666 2°55.954 126 -999 173 -999
2008-03-28 07:17:52 51°13.666 2°55.954 126 -999 219 -999
2008-03-28 07:17:57 51°13.666 2°55.954 125.9 -999 263 -999
2008-03-28 07:18:02 51°13.666 2°55.954 125.9 -999 242 -999
2008-03-28 07:18:07 51°13.666 2°55.954 125.9 -999 55 -999
2008-03-28 07:18:12 51°13.666 2°55.954 125.9 -999 250 -999
2008-03-28 07:18:17 51°13.666 2°55.954 125.9 -999 63 -999
2008-03-28 07:18:22 51°13.666 2°55.954 125.9 -999 193 -999
2008-03-28 07:18:27 51°13.666 2°55.954 126 -999 154 -999
2008-03-28 07:18:32 51°13.666 2°55.954 126 -999 63 -999
2008-03-28 07:18:37 51°13.666 2°55.954 126.1 -999 85 -999
2008-03-28 07:18:42 51°13.666 2°55.955 126.1 -999 54 -999
2008-03-28 07:18:47 51°13.666 2°55.955 126.1 -999 246 -999
2008-03-28 07:18:52 51°13.666 2°55.955 126.2 -999 307 -999
2008-03-28 07:18:57 51°13.666 2°55.955 126.2 -999 313 -999
2008-03-28 07:19:02 51°13.666 2°55.955 126.2 -999 266 -999
2008-03-28 07:19:07 51°13.666 2°55.955 126.2 -999 131 -999
2008-03-28 07:19:12 51°13.666 2°55.955 126.2 -999 80 -999
2008-03-28 07:19:17 51°13.666 2°55.955 126.2 -999 242 -999
2008-03-28 07:19:22 51°13.666 2°55.955 126.2 -999 220 -999
2008-03-28 07:19:27 51°13.667 2°55.955 126.2 -999 76 -999
2008-03-28 07:19:32 51°13.667 2°55.955 126.2 -999 316 -999
2008-03-28 07:19:37 51°13.667 2°55.955 126.2 -999 238 -999
2008-03-28 07:19:42 51°13.667 2°55.955 126.2 -999 183 -999
2008-03-28 07:19:47 51°13.667 2°55.956 126.2 -999 187 -999
2008-03-28 07:19:52 51°13.667 2°55.956 126.2 -999 89 -999
2008-03-28 07:19:57 51°13.667 2°55.956 126.2 -999 11 -999
2008-03-28 07:20:02 51°13.667 2°55.956 126.2 -999 253 -999
2008-03-28 07:20:07 51°13.667 2°55.956 126.1 -999 304 -999
2008-03-28 07:20:12 51°13.667 2°55.956 126.1 -999 264 -999
2008-03-28 07:20:17 51°13.667 2°55.956 126 -999 9 -999
2008-03-28 07:20:22 51°13.667 2°55.956 125.9 -999 309 -999
2008-03-28 07:20:27 51°13.667 2°55.956 125.9 -999 304 -999
2008-03-28 07:20:32 51°13.667 2°55.956 125.9 -999 248 -999
2008-03-28 07:20:37 51°13.667 2°55.956 125.9 -999 34 -999
2008-03-28 07:20:42 51°13.666 2°55.956 125.9 -999 223 -999
2008-03-28 07:20:47 51°13.666 2°55.956 125.9 -999 65 -999
2008-03-28 07:20:52 51°13.666 2°55.956 125.9 -999 186 -999
2008-03-28 07:20:57 51°13.666 2°55.956 125.9 -999 131 -999
2008-03-28 07:21:02 51°13.666 2°55.956 125.9 -999 124 -999
2008-03-28 07:21:07 51°13.666 2°55.956 126 -999 68 -999
2008-03-28 07:21:12 51°13.666 2°55.956 126 -999 110 -999
2008-03-28 07:21:17 51°13.666 2°55.956 126 -999 88 -999
2008-03-28 07:21:22 51°13.666 2°55.956 126 -999 357 -999
2008-03-28 07:21:27 51°13.666 2°55.956 126 -999 278 -999
2008-03-28 07:21:32 51°13.666 2°55.956 126 -999 325 -999
2008-03-28 07:21:37 51°13.666 2°55.956 126 -999 287 -999
2008-03-28 07:21:42 51°13.666 2°55.956 126 -999 106 -999
2008-03-28 07:21:47 51°13.666 2°55.955 126 -999 130 -999
2008-03-28 07:21:52 51°13.666 2°55.955 126 -999 257 -999
2008-03-28 07:21:57 51°13.666 2°55.955 125.9 -999 290 -999
2008-03-28 07:22:02 51°13.666 2°55.955 125.8 -999 255 6.9
2008-03-28 07:22:07 51°13.666 2°55.955 125.8 -999 6 6.9
2008-03-28 07:22:12 51°13.666 2°55.955 125.8 -999 290 7
2008-03-28 07:22:17 51°13.666 2°55.955 125.8 -999 261 -999
2008-03-28 07:22:22 51°13.666 2°55.955 125.8 -999 225 6.9
2008-03-28 07:22:27 51°13.666 2°55.955 125.8 -999 62 6.9
2008-03-28 07:22:32 51°13.666 2°55.955 125.8 -999 207 -999
2008-03-28 07:22:37 51°13.666 2°55.955 125.8 -999 89 6.9
2008-03-28 07:22:42 51°13.666 2°55.955 125.8 -999 61 7
2008-03-28 07:22:47 51°13.666 2°55.955 125.8 -999 85 -999
2008-03-28 07:22:52 51°13.666 2°55.955 125.8 -999 212 7
2008-03-28 07:22:57 51°13.665 2°55.955 125.8 -999 172 6.9
2008-03-28 07:23:02 51°13.665 2°55.954 125.8 -999 188 6.9
2008-03-28 07:23:07 51°13.665 2°55.954 125.8 -999 27 6.9
2008-03-28 07:23:12 51°13.665 2°55.954 125.9 -999 188 -999
2008-03-28 07:23:17 51°13.665 2°55.954 125.9 -999 189 -999
2008-03-28 07:23:22 51°13.665 2°55.954 125.9 -999 306 -999
2008-03-28 07:23:27 51°13.665 2°55.954 125.9 -999 334 -999
2008-03-28 07:23:32 51°13.665 2°55.954 125.9 -999 115 -999
2008-03-28 07:23:37 51°13.665 2°55.954 126 -999 144 6.9
2008-03-28 07:23:42 51°13.665 2°55.954 126 -999 199 -999
2008-03-28 07:23:47 51°13.665 2°55.954 126 -999 46 -999
2008-03-28 07:23:52 51°13.665 2°55.954 126 -999 48 -999
2008-03-28 07:23:57 51°13.665 2°55.954 126 -999 308 -999
2008-03-28 07:24:02 51°13.665 2°55.954 126 -999 355 -999
2008-03-28 07:24:07 51°13.665 2°55.954 126 -999 210 -999
2008-03-28 07:24:12 51°13.665 2°55.954 125.9 -999 34 -999
2008-03-28 07:24:17 51°13.665 2°55.954 125.8 -999 302 -999
2008-03-28 07:24:22 51°13.665 2°55.954 125.7 -999 243 6.9
2008-03-28 07:24:27 51°13.665 2°55.954 125.6 -999 157 6.9
2008-03-28 07:24:32 51°13.666 2°55.954 125.6 -999 107 -999
2008-03-28 07:24:37 51°13.666 2°55.954 125.6 -999 150 6.9
2008-03-28 07:24:42 51°13.666 2°55.954 125.6 -999 228 6.9
2008-03-28 07:24:47 51°13.666 2°55.954 125.6 -999 258 -999
2008-03-28 07:24:52 51°13.666 2°55.954 125.7 -999 311 -999
2008-03-28 07:24:57 51°13.666 2°55.954 125.7 -999 356 -999
2008-03-28 07:25:02 51°13.666 2°55.954 125.7 -999 57 -999
2008-03-28 07:25:07 51°13.666 2°55.954 125.7 -999 12 -999
2008-03-28 07:25:12 51°13.666 2°55.954 125.7 -999 196 -999
2008-03-28 07:25:17 51°13.666 2°55.954 125.7 -999 65 6.9
2008-03-28 07:25:22 51°13.666 2°55.954 125.6 -999 186 6.9
2008-03-28 07:25:27 51°13.666 2°55.954 125.6 -999 41 -999
2008-03-28 07:25:32 51°13.666 2°55.954 125.6 -999 80 -999
2008-03-28 07:25:37 51°13.666 2°55.954 125.6 -999 116 -999
2008-03-28 07:25:42 51°13.666 2°55.954 125.6 -999 152 6.9
2008-03-28 07:25:47 51°13.666 2°55.954 125.6 -999 116 6.8
2008-03-28 07:25:52 51°13.666 2°55.953 125.6 -999 79 5.2
2008-03-28 07:25:57 51°13.666 2°55.953 125.5 -999 189 6.9
2008-03-28 07:26:02 51°13.666 2°55.953 125.5 -999 114 6.9
2008-03-28 07:26:07 51°13.666 2°55.953 125.5 -999 194 -999
2008-03-28 07:26:12 51°13.666 2°55.953 125.6 -999 203 6.9
2008-03-28 07:26:17 51°13.666 2°55.953 125.7 -999 183 -999
2008-03-28 07:26:22 51°13.666 2°55.953 125.7 -999 130 -999
2008-03-28 07:26:27 51°13.666 2°55.953 125.7 -999 226 -999
2008-03-28 07:26:32 51°13.666 2°55.953 125.7 -999 288 6.9
2008-03-28 07:26:37 51°13.666 2°55.953 125.7 -999 30 -999
2008-03-28 07:26:42 51°13.666 2°55.953 125.7 -999 5 -999
2008-03-28 07:26:47 51°13.666 2°55.953 125.7 -999 305 6.8
2008-03-28 07:26:52 51°13.666 2°55.953 125.7 -999 68 6.8
2008-03-28 07:26:57 51°13.666 2°55.953 125.7 -999 223 6.8
2008-03-28 07:27:02 51°13.666 2°55.953 125.6 -999 9 6.8
2008-03-28 07:27:07 51°13.666 2°55.953 125.6 -999 189 6.8
2008-03-28 07:27:12 51°13.666 2°55.953 125.6 -999 138 -999
2008-03-28 07:27:17 51°13.666 2°55.953 125.6 -999 107 -999
2008-03-28 07:27:22 51°13.667 2°55.953 125.7 -999 55 6.9
2008-03-28 07:27:27 51°13.667 2°55.953 125.8 -999 269 6.8
2008-03-28 07:27:32 51°13.667 2°55.953 125.8 -999 354 6.8
2008-03-28 07:27:37 51°13.667 2°55.953 125.8 -999 29 -999
2008-03-28 07:27:42 51°13.667 2°55.953 125.8 -999 129 6.8
2008-03-28 07:27:47 51°13.667 2°55.953 125.8 -999 55 6.8
2008-03-28 07:27:52 51°13.667 2°55.953 125.9 -999 38 6.8
2008-03-28 07:27:57 51°13.667 2°55.953 125.9 -999 235 6.8
2008-03-28 07:28:02 51°13.667 2°55.953 125.9 -999 10 6.8
2008-03-28 07:28:07 51°13.667 2°55.953 125.9 -999 1 6.8
2008-03-28 07:28:12 51°13.667 2°55.953 125.9 -999 341 6.8
2008-03-28 07:28:17 51°13.667 2°55.953 125.9 -999 306 6.8
2008-03-28 07:28:22 51°13.667 2°55.953 125.9 -999 204 6.8
2008-03-28 07:28:27 51°13.667 2°55.953 125.9 -999 123 6.8
2008-03-28 07:28:32 51°13.667 2°55.953 125.9 -999 164 -999
2008-03-28 07:28:37 51°13.667 2°55.953 125.9 -999 134 6.8
2008-03-28 07:28:42 51°13.667 2°55.953 125.8 -999 256 -999
2008-03-28 07:28:47 51°13.667 2°55.953 125.8 -999 193 6.8
2008-03-28 07:28:52 51°13.667 2°55.953 125.7 0.1 173 -999
2008-03-28 07:28:57 51°13.667 2°55.953 125.6 0.1 128 -999
2008-03-28 07:29:02 51°13.667 2°55.953 125.6 -999 169 6.8
2008-03-28 07:29:07 51°13.667 2°55.953 125.8 0.1 19 -999
2008-03-28 07:29:12 51°13.667 2°55.953 126.1 -999 13 -999
2008-03-28 07:29:17 51°13.667 2°55.953 126.1 -999 37 6.8
2008-03-28 07:29:22 51°13.667 2°55.953 126.1 -999 116 6.8
2008-03-28 07:29:27 51°13.667 2°55.953 126.1 -999 291 -999
2008-03-28 07:29:32 51°13.667 2°55.953 126.1 -999 320 6.8
2008-03-28 07:29:37 51°13.667 2°55.953 126.1 -999 94 -999
2008-03-28 07:29:42 51°13.667 2°55.953 126.1 -999 359 -999
2008-03-28 07:29:47 51°13.667 2°55.953 126.1 -999 4 -999
2008-03-28 07:29:52 51°13.667 2°55.953 126.1 -999 74 6.8
2008-03-28 07:29:57 51°13.667 2°55.953 126.2 -999 99 -999
2008-03-28 07:30:02 51°13.667 2°55.953 126.2 -999 303 6.8
2008-03-28 07:30:07 51°13.667 2°55.953 126.2 -999 4 6.8
2008-03-28 07:30:12 51°13.667 2°55.953 126.2 -999 179 6.8
2008-03-28 07:30:17 51°13.667 2°55.953 126.2 -999 177 -999
2008-03-28 07:30:22 51°13.666 2°55.953 126.3 -999 316 6.8
2008-03-28 07:30:27 51°13.666 2°55.953 126.4 -999 47 6.8
2008-03-28 07:30:32 51°13.666 2°55.953 126.5 -999 33 6.8
2008-03-28 07:30:37 51°13.666 2°55.952 126.5 -999 22 6.8
2008-03-28 07:30:42 51°13.665 2°55.952 126.5 -999 15 6.8
2008-03-28 07:30:47 51°13.665 2°55.952 126.5 -999 26 6.8
2008-03-28 07:30:52 51°13.666 2°55.953 126.5 -999 122 6.8
2008-03-28 07:30:57 51°13.666 2°55.953 126.5 -999 358 -999
2008-03-28 07:31:02 51°13.666 2°55.953 126.5 -999 294 6.8
2008-03-28 07:31:07 51°13.666 2°55.953 126.5 -999 22 6.8
2008-03-28 07:31:12 51°13.666 2°55.953 126.5 -999 249 6.7
2008-03-28 07:31:17 51°13.666 2°55.953 126.5 -999 227 6.8
2008-03-28 07:31:22 51°13.666 2°55.953 126.5 -999 275 6.7
2008-03-28 07:31:27 51°13.666 2°55.953 126.5 -999 258 6.8
2008-03-28 07:31:32 51°13.666 2°55.953 126.6 -999 307 6.8
2008-03-28 07:31:37 51°13.666 2°55.953 126.6 -999 282 -999
2008-03-28 07:31:42 51°13.666 2°55.953 126.6 -999 252 6.8
2008-03-28 07:31:47 51°13.666 2°55.953 126.6 -999 257 6.8
2008-03-28 07:31:52 51°13.666 2°55.953 126.7 -999 210 -999
2008-03-28 07:31:57 51°13.665 2°55.953 126.7 -999 276 -999
2008-03-28 07:32:02 51°13.665 2°55.953 126.8 -999 268 -999
2008-03-28 07:32:07 51°13.665 2°55.953 126.8 -999 18 6.8
2008-03-28 07:32:12 51°13.665 2°55.953 126.8 -999 9 -999
2008-03-28 07:32:17 51°13.665 2°55.953 126.9 -999 139 6.8
2008-03-28 07:32:22 51°13.665 2°55.953 126.8 -999 72 6.9
2008-03-28 07:32:27 51°13.665 2°55.953 126.8 -999 278 6.8
2008-03-28 07:32:32 51°13.665 2°55.953 126.6 -999 235 6.7
2008-03-28 07:32:37 51°13.665 2°55.953 126.5 -999 347 6.8
2008-03-28 07:32:42 51°13.665 2°55.953 126.5 -999 299 6.7
2008-03-28 07:32:47 51°13.665 2°55.953 126.5 -999 194 6.8
2008-03-28 07:32:52 51°13.665 2°55.953 126.5 -999 283 6.8
2008-03-28 07:32:57 51°13.665 2°55.953 126.5 -999 352 6.7
2008-03-28 07:33:02 51°13.665 2°55.953 126.5 -999 244 6.8
2008-03-28 07:33:07 51°13.665 2°55.953 126.5 -999 52 6.8
2008-03-28 07:33:12 51°13.665 2°55.953 126.5 -999 21 -999
2008-03-28 07:33:17 51°13.665 2°55.953 126.5 -999 168 6.7
2008-03-28 07:33:22 51°13.665 2°55.953 126.5 -999 309 6.8
2008-03-28 07:33:27 51°13.665 2°55.953 126.5 -999 267 6.7
2008-03-28 07:33:32 51°13.666 2°55.953 126.5 -999 226 6.8
2008-03-28 07:33:37 51°13.666 2°55.953 126.5 -999 214 6.8
2008-03-28 07:33:42 51°13.666 2°55.953 126.5 -999 182 6.8
2008-03-28 07:33:47 51°13.666 2°55.953 126.5 -999 337 6.8
2008-03-28 07:33:52 51°13.666 2°55.953 126.5 -999 291 6.8
2008-03-28 07:33:57 51°13.666 2°55.953 126.5 -999 236 6.7
2008-03-28 07:34:02 51°13.666 2°55.953 126.5 -999 284 6.7
2008-03-28 07:34:07 51°13.667 2°55.953 126.5 -999 330 6.7
2008-03-28 07:34:12 51°13.667 2°55.953 126.5 -999 20 -999
2008-03-28 07:34:17 51°13.666 2°55.953 126.5 -999 209 6.8
2008-03-28 07:34:22 51°13.666 2°55.953 126.5 -999 160 6.7
2008-03-28 07:34:27 51°13.666 2°55.953 126.5 -999 263 6.8
2008-03-28 07:34:32 51°13.665 2°55.953 126.5 -999 277 6.7
2008-03-28 07:34:37 51°13.665 2°55.953 126.6 -999 231 6.9
2008-03-28 07:34:42 51°13.665 2°55.953 126.7 -999 253 -999
2008-03-28 07:34:47 51°13.665 2°55.953 126.8 -999 299 -999
2008-03-28 07:34:52 51°13.665 2°55.953 126.9 -999 344 -999
2008-03-28 07:34:57 51°13.666 2°55.953 126.9 -999 89 -999
2008-03-28 07:35:02 51°13.666 2°55.953 126.9 -999 13 6.7
2008-03-28 07:35:07 51°13.666 2°55.953 126.9 -999 47 -999
2008-03-28 07:35:12 51°13.666 2°55.953 126.9 -999 136 -999
2008-03-28 07:35:17 51°13.666 2°55.953 126.6 -999 53 6.8
2008-03-28 07:35:22 51°13.666 2°55.953 126.2 -999 166 -999
2008-03-28 07:35:27 51°13.666 2°55.953 125.8 -999 106 6.7
2008-03-28 07:35:32 51°13.666 2°55.953 125.3 -999 192 6.8
2008-03-28 07:35:37 51°13.666 2°55.953 125 0.1 189 6.8
2008-03-28 07:35:42 51°13.665 2°55.953 124.6 0.1 173 6.8
2008-03-28 07:35:47 51°13.665 2°55.953 124.1 0.1 194 6.8
2008-03-28 07:35:52 51°13.665 2°55.953 123.6 -999 210 6.8
2008-03-28 07:35:57 51°13.665 2°55.954 122.5 0.1 193 6.8
2008-03-28 07:36:02 51°13.665 2°55.954 121.1 0.1 212 6.8
2008-03-28 07:36:07 51°13.665 2°55.953 119.9 0.1 216 6.8
2008-03-28 07:36:12 51°13.665 2°55.953 118.9 0.1 201 6.8
2008-03-28 07:36:17 51°13.665 2°55.953 117.8 0.1 191 6.8
2008-03-28 07:36:22 51°13.665 2°55.953 116.8 0.1 205 6.8
2008-03-28 07:36:27 51°13.664 2°55.953 115.6 0.1 201 -999
2008-03-28 07:36:32 51°13.664 2°55.953 114.6 0.1 202 -999
2008-03-28 07:36:37 51°13.664 2°55.953 113.7 0.1 286 6.9
2008-03-28 07:36:42 51°13.664 2°55.953 113.1 0.1 299 -999
2008-03-28 07:36:47 51°13.664 2°55.952 112.4 0.2 299 6.8
2008-03-28 07:36:52 51°13.664 2°55.952 112 0.4 309 6.9
2008-03-28 07:36:57 51°13.664 2°55.951 111.9 0.6 297 6.8
2008-03-28 07:37:02 51°13.665 2°55.949 111.8 0.7 301 6.8
2008-03-28 07:37:07 51°13.665 2°55.948 111.8 0.9 300 6.8
2008-03-28 07:37:12 51°13.666 2°55.946 111.8 1.1 304 6.7
2008-03-28 07:37:17 51°13.667 2°55.943 111.9 1.3 301 6.8
2008-03-28 07:37:22 51°13.668 2°55.941 111.9 1.4 303 6.8
2008-03-28 07:37:27 51°13.669 2°55.938 111.9 1.5 301 6.8
2008-03-28 07:37:32 51°13.671 2°55.935 111.7 1.7 301 4.8
2008-03-28 07:37:37 51°13.672 2°55.931 110.9 1.8 298 -999
2008-03-28 07:37:42 51°13.673 2°55.927 109.9 2 298 6.9
2008-03-28 07:37:47 51°13.674 2°55.923 108.8 2.2 295 -999
2008-03-28 07:37:52 51°13.676 2°55.918 107.6 2.4 294 -999
2008-03-28 07:37:57 51°13.677 2°55.913 106.7 2.7 292 -999
2008-03-28 07:38:02 51°13.679 2°55.907 105.3 2.9 291 -999
2008-03-28 07:38:07 51°13.68 2°55.9 104 3 289 -999
2008-03-28 07:38:12 51°13.681 2°55.894 102.7 3.2 288 -999
2008-03-28 07:38:17 51°13.683 2°55.887 101.4 3.3 285 -999
2008-03-28 07:38:22 51°13.684 2°55.879 100.1 3.4 285 -999
2008-03-28 07:38:27 51°13.685 2°55.872 98.1 3.4 283 -999
2008-03-28 07:38:32 51°13.686 2°55.865 96.5 3.4 283 -999
2008-03-28 07:38:37 51°13.687 2°55.857 94.9 3.3 280 -999
2008-03-28 07:38:42 51°13.688 2°55.85 93.2 3.3 279 -999
2008-03-28 07:38:47 51°13.688 2°55.843 91.6 3.3 278 -999
2008-03-28 07:38:52 51°13.689 2°55.836 90 3.3 277 -999
2008-03-28 07:38:57 51°13.689 2°55.829 88.7 3.3 276 -999
2008-03-28 07:39:02 51°13.69 2°55.821 87.7 3.2 276 -999
2008-03-28 07:39:07 51°13.691 2°55.815 85.9 3.1 274 -999
2008-03-28 07:39:12 51°13.691 2°55.808 83.8 3 271 -999
2008-03-28 07:39:17 51°13.691 2°55.802 81.9 3 270 -999
2008-03-28 07:39:22 51°13.69 2°55.795 79.7 2.9 267 -999
2008-03-28 07:39:27 51°13.69 2°55.789 77.7 2.8 267 -999
2008-03-28 07:39:32 51°13.69 2°55.783 76.3 2.7 265 10.7
2008-03-28 07:39:37 51°13.689 2°55.777 74.9 2.6 265 -999
2008-03-28 07:39:42 51°13.689 2°55.772 73.8 2.6 264 12
2008-03-28 07:39:47 51°13.689 2°55.766 72.6 2.5 265 -999
2008-03-28 07:39:52 51°13.688 2°55.761 71.4 2.4 264 11.8
2008-03-28 07:39:57 51°13.688 2°55.756 69.9 2.3 264 11.8
2008-03-28 07:40:02 51°13.688 2°55.751 68.4 2.1 262 -999
2008-03-28 07:40:07 51°13.687 2°55.747 66.5 2.1 262 12
2008-03-28 07:40:12 51°13.687 2°55.743 64.1 1.9 259 12.2
2008-03-28 07:40:17 51°13.686 2°55.739 61.9 1.8 260 11.9
2008-03-28 07:40:22 51°13.686 2°55.735 58.8 1.6 256 12.1
2008-03-28 07:40:27 51°13.685 2°55.732 55.5 1.4 256 12.6
2008-03-28 07:40:32 51°13.684 2°55.73 52.1 1.2 254 13.1
2008-03-28 07:40:37 51°13.684 2°55.727 48.7 1.1 256 13.4
2008-03-28 07:40:42 51°13.684 2°55.725 45.6 0.9 253 13.5
2008-03-28 07:40:47 51°13.684 2°55.724 42.7 0.8 267 13.7
2008-03-28 07:40:52 51°13.684 2°55.723 39.8 0.5 287 13.7
2008-03-28 07:40:57 51°13.684 2°55.722 36.6 0.6 316 13.7
2008-03-28 07:41:02 51°13.685 2°55.722 32.9 0.6 346 13.4
2008-03-28 07:41:07 51°13.687 2°55.722 28.5 1 349 13.3
2008-03-28 07:41:12 51°13.689 2°55.721 23.7 1.3 358 -999
2008-03-28 07:41:17 51°13.691 2°55.721 17.3 1.7 355 12.7
2008-03-28 07:41:22 51°13.694 2°55.72 12.2 2.1 352 12.8
2008-03-28 07:41:27 51°13.698 2°55.719 5.3 2.9 350 13.8
2008-03-28 07:41:32 51°13.703 2°55.717 358 3.7 342 15.4
2008-03-28 07:41:37 51°13.709 2°55.714 350.7 4.3 340 14.3
2008-03-28 07:41:42 51°13.715 2°55.709 345.6 4.8 337 12
2008-03-28 07:41:47 51°13.722 2°55.704 341.7 5.4 335 11.7
2008-03-28 07:41:52 51°13.729 2°55.698 338.9 5.9 334 11.5
2008-03-28 07:41:57 51°13.737 2°55.693 337.5 6.2 334 11.7
2008-03-28 07:42:02 51°13.745 2°55.686 336.9 6.6 334 11.5
2008-03-28 07:42:07 51°13.754 2°55.68 336.5 6.9 334 11.2
2008-03-28 07:42:12 51°13.762 2°55.673 336.6 7.1 334 11.2
2008-03-28 07:42:17 51°13.772 2°55.665 336.7 7.3 334 11.2
2008-03-28 07:42:22 51°13.781 2°55.658 336.3 7.6 334 10.9
2008-03-28 07:42:27 51°13.791 2°55.651 336.1 7.8 335 10.8
2008-03-28 07:42:32 51°13.801 2°55.644 336.7 7.9 335 10.8
2008-03-28 07:42:37 51°13.811 2°55.636 336.9 8.1 335 10.8
2008-03-28 07:42:42 51°13.821 2°55.629 336.9 8.3 337 10.7
2008-03-28 07:42:47 51°13.832 2°55.621 337 8.4 336 10.7
2008-03-28 07:42:52 51°13.842 2°55.613 337.3 8.5 336 10.7
2008-03-28 07:42:57 51°13.853 2°55.605 337 8.6 335 10.6
2008-03-28 07:43:02 51°13.864 2°55.597 335.9 8.7 334 10.5
2008-03-28 07:43:07 51°13.875 2°55.589 335.5 8.7 335 10.4
2008-03-28 07:43:12 51°13.886 2°55.581 336 8.8 335 10.5
2008-03-28 07:43:17 51°13.898 2°55.572 336.2 8.8 335 10.9
2008-03-28 07:43:21 51°13.906 2°55.566 336 8.8 336 11
2008-03-28 07:43:26 51°13.917 2°55.558 336.3 8.8 336 10.7
2008-03-28 07:43:32 51°13.931 2°55.548 336.7 8.8 336 10.7
2008-03-28 07:43:36 51°13.94 2°55.541 336.7 8.8 335 10.7
2008-03-28 07:43:41 51°13.951 2°55.533 335.7 8.7 334 10.6
2008-03-28 07:43:46 51°13.962 2°55.525 335 8.7 335 10.6
2008-03-28 07:43:51 51°13.973 2°55.516 335.3 8.8 335 10.6
2008-03-28 07:43:56 51°13.984 2°55.509 335.5 8.8 336 10.6
2008-03-28 07:44:00 51°13.993 2°55.502 335.6 8.8 335 10.5
2008-03-28 07:44:05 51°14.004 2°55.493 335.1 8.8 335 10.6
2008-03-28 07:44:10 51°14.016 2°55.485 335 8.8 335 10.5
2008-03-28 07:44:15 51°14.027 2°55.477 335.5 8.8 336 10.7
2008-03-28 07:44:20 51°14.038 2°55.469 336.1 8.8 336 10.7
2008-03-28 07:44:25 51°14.049 2°55.461 336.7 8.8 337 -999
2008-03-28 07:44:30 51°14.06 2°55.453 336.7 8.9 336 5.3
2008-03-28 07:44:35 51°14.071 2°55.445 336.1 8.9 336 10.7
2008-03-28 07:44:40 51°14.083 2°55.437 335.8 8.9 335 10.3
2008-03-28 07:44:45 51°14.094 2°55.429 335.7 8.9 337 9.8
2008-03-28 07:44:49 51°14.103 2°55.423 336.6 8.9 336 10.2
2008-03-28 07:44:54 51°14.115 2°55.415 336.9 9 336 10.2
2008-03-28 07:44:59 51°14.127 2°55.407 336.3 9.2 335 10.6
2008-03-28 07:45:04 51°14.138 2°55.398 334.8 9.5 334 -999
2008-03-28 07:45:10 51°14.153 2°55.386 333.7 9.6 334 -999
2008-03-28 07:45:16 51°14.167 2°55.374 332.8 9.8 332 -999
2008-03-28 07:45:21 51°14.179 2°55.362 331.4 9.9 329 -999
2008-03-28 07:45:26 51°14.19 2°55.35 329.9 9.9 327 5
2008-03-28 07:45:32 51°14.204 2°55.336 328.4 9.9 327 10.6
2008-03-28 07:45:36 51°14.213 2°55.326 327.5 9.9 325 10.6
2008-03-28 07:45:42 51°14.226 2°55.31 325.8 10 323 -999
2008-03-28 07:45:47 51°14.237 2°55.296 322.9 10 320 -999
2008-03-28 07:45:52 51°14.247 2°55.281 320.4 10 318 -999
2008-03-28 07:45:57 51°14.257 2°55.266 318.1 10 315 10.6
2008-03-28 07:46:01 51°14.264 2°55.253 315.9 10 313 10.7
2008-03-28 07:46:06 51°14.274 2°55.236 313.7 10.1 311 10.5
2008-03-28 07:46:12 51°14.284 2°55.215 311.9 10.2 310 10.5
2008-03-28 07:46:16 51°14.292 2°55.201 310.6 10.3 310 10.4
2008-03-28 07:46:21 51°14.3 2°55.183 309.7 10.4 307 10.4
2008-03-28 07:46:25 51°14.307 2°55.168 307.7 10.5 306 10.3
2008-03-28 07:46:30 51°14.316 2°55.149 306.4 10.7 306 10.4
2008-03-28 07:46:36 51°14.327 2°55.126 306.3 10.9 307 10.8
2008-03-28 07:46:40 51°14.334 2°55.11 307 11.1 307 -999
2008-03-28 07:46:45 51°14.343 2°55.089 307.1 11.4 305 -999
2008-03-28 07:46:51 51°14.354 2°55.064 305.3 11.7 304 4.9
2008-03-28 07:46:56 51°14.363 2°55.042 304.3 11.9 304 11
2008-03-28 07:47:00 51°14.37 2°55.024 304.2 12.1 304 10.6
2008-03-28 07:47:05 51°14.38 2°55.001 304.2 12.2 304 10.4
2008-03-28 07:47:10 51°14.389 2°54.978 304.6 12.3 303 10.4
2008-03-28 07:47:15 51°14.398 2°54.954 304.1 12.4 301 10.4
2008-03-28 07:47:20 51°14.407 2°54.931 303.8 12.5 302 10.5
2008-03-28 07:47:24 51°14.415 2°54.912 304.7 12.6 302 10.7
2008-03-28 07:47:29 51°14.423 2°54.888 304 12.6 298 10.7
2008-03-28 07:47:34 51°14.431 2°54.863 301.1 12.7 295 10.7
2008-03-28 07:47:39 51°14.437 2°54.836 297 12.8 290 10.7
2008-03-28 07:47:44 51°14.442 2°54.809 292.7 12.9 288 10.8
2008-03-28 07:47:48 51°14.445 2°54.786 289.3 12.9 284 10.7
2008-03-28 07:47:53 51°14.45 2°54.759 287.1 12.9 284 10.7
2008-03-28 07:47:58 51°14.454 2°54.731 285.9 13 283 10.7
2008-03-28 07:48:04 51°14.458 2°54.697 283.7 13.1 280 10.6
2008-03-28 07:48:08 51°14.46 2°54.674 280.8 13.1 277 10.6
2008-03-28 07:48:13 51°14.461 2°54.645 277.9 13.1 275 10.7
2008-03-28 07:48:19 51°14.462 2°54.61 275.4 13.2 273 10.7
2008-03-28 07:48:24 51°14.462 2°54.58 273.2 13.2 271 10.6
2008-03-28 07:48:28 51°14.462 2°54.557 271 13.3 269 10.5
2008-03-28 07:48:34 51°14.46 2°54.521 268.6 13.3 267 10.5
2008-03-28 07:48:38 51°14.459 2°54.498 266.8 13.3 266 10.4
2008-03-28 07:48:44 51°14.457 2°54.463 265.4 13.2 264 10.5
2008-03-28 07:48:48 51°14.455 2°54.44 263.5 13.2 262 10.4
2008-03-28 07:48:54 51°14.45 2°54.405 260.6 13.3 259 10.4
2008-03-28 07:48:58 51°14.447 2°54.382 258.1 13.3 258 10.3
2008-03-28 07:49:04 51°14.442 2°54.347 257.6 13.3 257 10
2008-03-28 07:49:08 51°14.439 2°54.324 256.3 13.2 255 9.8
2008-03-28 07:49:13 51°14.433 2°54.297 253.8 13.2 253 9.7
2008-03-28 07:49:19 51°14.426 2°54.263 251.9 13.2 252 9.6
2008-03-28 07:49:24 51°14.42 2°54.236 250.9 13.2 251 9.5
2008-03-28 07:49:28 51°14.416 2°54.214 250.1 13.2 251 9.5
2008-03-28 07:49:34 51°14.408 2°54.181 249.4 13.2 250 9.5
2008-03-28 07:49:38 51°14.403 2°54.159 248.9 13.2 250 9.5
2008-03-28 07:49:44 51°14.395 2°54.126 248.5 13.2 250 9.5
2008-03-28 07:49:48 51°14.39 2°54.104 248.1 13.3 249 9.5
2008-03-28 07:49:53 51°14.383 2°54.077 247.8 13.3 249 9.5
2008-03-28 07:49:58 51°14.377 2°54.049 247.6 13.2 249 9.5
2008-03-28 07:50:04 51°14.369 2°54.017 247.4 13.2 249 9.6
2008-03-28 07:50:09 51°14.363 2°53.989 247.7 13.2 249 9.6
2008-03-28 07:50:13 51°14.358 2°53.967 248.7 13.2 251 9.6
2008-03-28 07:50:18 51°14.352 2°53.94 249.4 13.2 251 9.6
2008-03-28 07:50:24 51°14.345 2°53.906 250 13.2 252 9.6
2008-03-28 07:50:28 51°14.341 2°53.884 251.3 13.2 253 9.6
2008-03-28 07:50:33 51°14.335 2°53.856 251.9 13.2 253 9.7
2008-03-28 07:50:39 51°14.328 2°53.823 250.8 13.2 251 9.7
2008-03-28 07:50:44 51°14.322 2°53.796 249.3 13.1 250 9.7
2008-03-28 07:50:48 51°14.316 2°53.774 248.1 13.2 249 9.7
2008-03-28 07:50:54 51°14.309 2°53.742 247.4 13.2 249 9.7
2008-03-28 07:50:59 51°14.302 2°53.715 247.3 13.2 249 9.7
2008-03-28 07:51:04 51°14.296 2°53.687 247.8 13.2 250 9.7
2008-03-28 07:51:08 51°14.29 2°53.665 247.5 13.2 248 9.7
2008-03-28 07:51:14 51°14.283 2°53.632 247.4 13.2 250 9.7
2008-03-28 07:51:19 51°14.277 2°53.605 248.8 13.2 251 9.7
2008-03-28 07:51:24 51°14.271 2°53.577 249.2 13.2 251 9.8
2008-03-28 07:51:28 51°14.266 2°53.556 249 13.2 250 9.8
2008-03-28 07:51:33 51°14.26 2°53.528 249.3 13.2 251 9.9
2008-03-28 07:51:38 51°14.254 2°53.501 248.6 13.2 249 9.9
2008-03-28 07:51:44 51°14.246 2°53.468 247.9 13.1 249 9.9
2008-03-28 07:51:48 51°14.241 2°53.446 247.2 13.2 249 9.9
2008-03-28 07:51:53 51°14.234 2°53.419 247.2 13.2 250 9.9
2008-03-28 07:51:59 51°14.227 2°53.386 248.1 13.2 250 9.9
2008-03-28 07:52:04 51°14.22 2°53.359 247.8 13.2 249 10
2008-03-28 07:52:08 51°14.215 2°53.337 247.4 13.2 249 10
2008-03-28 07:52:13 51°14.209 2°53.31 247.9 13.2 250 10.1
2008-03-28 07:52:18 51°14.202 2°53.283 247.4 13.2 249 10.1
2008-03-28 07:52:24 51°14.194 2°53.25 246.8 13.2 250 10.2
2008-03-28 07:52:28 51°14.189 2°53.228 248 13.2 250 10.2
2008-03-28 07:52:33 51°14.184 2°53.2 249.2 13.2 252 10.2
2008-03-28 07:52:38 51°14.177 2°53.173 248.3 13.2 249 10.3
2008-03-28 07:52:44 51°14.17 2°53.14 248.1 13.2 251 10.3
2008-03-28 07:52:48 51°14.165 2°53.117 249.8 13.3 253 10.5
2008-03-28 07:52:53 51°14.16 2°53.089 250.7 13.2 252 10.4
2008-03-28 07:52:59 51°14.153 2°53.056 251.3 13.2 253 10.5
2008-03-28 07:53:04 51°14.147 2°53.028 250.9 13.2 251 10.6
2008-03-28 07:53:08 51°14.142 2°53.006 249.7 13.2 251 10.6
2008-03-28 07:53:13 51°14.136 2°52.979 248.6 13.2 249 10.6
2008-03-28 07:53:19 51°14.127 2°52.947 247.1 13.1 247 10.7
2008-03-28 07:53:24 51°14.12 2°52.92 245.4 13.2 247 10.7
2008-03-28 07:53:28 51°14.114 2°52.899 244.5 13.1 246 10.7
2008-03-28 07:53:34 51°14.105 2°52.868 243.5 13.1 245 10.8
2008-03-28 07:53:39 51°14.097 2°52.841 243.6 13.2 246 10.7
2008-03-28 07:53:44 51°14.09 2°52.815 243.9 13.1 246 10.8
2008-03-28 07:53:48 51°14.084 2°52.794 243.8 13.1 246 10.8
2008-03-28 07:53:53 51°14.076 2°52.767 243.5 13.2 245 10.7
2008-03-28 07:53:59 51°14.067 2°52.736 242.9 13.1 245 10.8
2008-03-28 07:54:04 51°14.059 2°52.71 243 13.1 245 10.7
2008-03-28 07:54:08 51°14.053 2°52.689 243 13.1 245 10.8
2008-03-28 07:54:13 51°14.046 2°52.662 242.9 13.1 244 10.8
2008-03-28 07:54:18 51°14.038 2°52.636 242.9 13.1 246 10.8
2008-03-28 07:54:24 51°14.028 2°52.606 242 13.1 243 10.7
2008-03-28 07:54:28 51°14.022 2°52.585 241.6 13.1 244 10.7
2008-03-28 07:54:34 51°14.012 2°52.554 241.7 13 244 10.7
2008-03-28 07:54:38 51°14.005 2°52.534 240.2 13.1 241 10.7
2008-03-28 07:54:44 51°13.995 2°52.503 240 13 242 10.7
2008-03-28 07:54:49 51°13.986 2°52.479 239.5 13 240 10.7
2008-03-28 07:54:54 51°13.978 2°52.453 238.8 13 242 10.7
2008-03-28 07:54:58 51°13.97 2°52.433 239 13 240 10.7
2008-03-28 07:55:04 51°13.96 2°52.404 238.2 13 240 10.8
2008-03-28 07:55:08 51°13.953 2°52.383 237.9 13 241 10.8
2008-03-28 07:55:14 51°13.942 2°52.353 238 13 240 10.7
2008-03-28 07:55:19 51°13.933 2°52.328 238.7 13 242 10.7
2008-03-28 07:55:24 51°13.924 2°52.303 238.8 13 240 10.7
2008-03-28 07:55:28 51°13.917 2°52.283 238.7 13 241 10.7
2008-03-28 07:55:33 51°13.908 2°52.259 239.1 12.7 240 10.7
2008-03-28 07:55:39 51°13.898 2°52.233 237.1 11.8 236 10.7
2008-03-28 07:55:44 51°13.889 2°52.213 234.2 10.9 235 10.7
2008-03-28 07:55:48 51°13.883 2°52.2 231.9 9.9 233 10.7
2008-03-28 07:55:53 51°13.875 2°52.184 229.5 9 231 10.8
2008-03-28 07:55:58 51°13.867 2°52.17 227.4 8.2 230 10.9
2008-03-28 07:56:04 51°13.859 2°52.155 225.3 7.5 229 10.9
2008-03-28 07:56:08 51°13.854 2°52.146 223.5 7 227 11
2008-03-28 07:56:13 51°13.848 2°52.136 221.8 6.5 227 11
2008-03-28 07:56:19 51°13.84 2°52.124 220.1 6 225 11.1
2008-03-28 07:56:24 51°13.835 2°52.116 218.9 5.6 225 11.1
2008-03-28 07:56:28 51°13.831 2°52.109 217.6 5.3 223 11
2008-03-28 07:56:33 51°13.826 2°52.101 216.4 5 224 11
2008-03-28 07:56:39 51°13.82 2°52.093 215.5 4.7 222 11
2008-03-28 07:56:44 51°13.815 2°52.086 214.4 4.5 223 11
2008-03-28 07:56:48 51°13.812 2°52.082 213.8 4.2 223 11.1
2008-03-28 07:56:54 51°13.807 2°52.074 212.9 4 223 11
2008-03-28 07:56:58 51°13.804 2°52.07 212.4 3.9 222 11
2008-03-28 07:57:04 51°13.8 2°52.063 212 3.8 223 11.1
2008-03-28 07:57:08 51°13.797 2°52.059 212 3.7 223 11
2008-03-28 07:57:14 51°13.792 2°52.052 212.6 3.7 224 11
2008-03-28 07:57:19 51°13.789 2°52.046 213.7 3.6 225 11
2008-03-28 07:57:24 51°13.785 2°52.04 214.8 3.6 226 11
2008-03-28 07:57:29 51°13.782 2°52.035 215.9 3.5 228 11
2008-03-28 07:57:34 51°13.779 2°52.029 216.5 3.5 227 11
2008-03-28 07:57:39 51°13.776 2°52.023 217 3.5 230 11
2008-03-28 07:57:44 51°13.773 2°52.017 217.4 3.4 229 11
2008-03-28 07:57:48 51°13.77 2°52.013 217.8 3.4 230 11
2008-03-28 07:57:54 51°13.767 2°52.006 218.3 3.3 230 11
2008-03-28 07:57:59 51°13.764 2°52 218.5 3.3 232 11
2008-03-28 07:58:04 51°13.761 2°51.995 218.6 3.3 230 11
2008-03-28 07:58:08 51°13.759 2°51.99 219 3.2 233 11
2008-03-28 07:58:14 51°13.756 2°51.983 219.1 3.2 232 11.1
2008-03-28 07:58:19 51°13.753 2°51.978 219.3 3.2 233 11
2008-03-28 07:58:24 51°13.75 2°51.972 219.6 3.1 234 11
2008-03-28 07:58:28 51°13.749 2°51.968 219.5 3.1 234 11
2008-03-28 07:58:33 51°13.746 2°51.962 219.8 3.1 234 11
2008-03-28 07:58:39 51°13.743 2°51.956 219.8 3.1 235 11
2008-03-28 07:58:44 51°13.741 2°51.95 219.9 3 233 11
2008-03-28 07:58:48 51°13.739 2°51.946 219.8 3 235 11.1
2008-03-28 07:58:53 51°13.736 2°51.941 219.8 3 233 11.1
2008-03-28 07:58:58 51°13.734 2°51.935 219.6 2.9 234 11
2008-03-28 07:59:04 51°13.731 2°51.929 219.1 2.9 233 11
2008-03-28 07:59:08 51°13.729 2°51.925 218.4 2.9 233 11.1
2008-03-28 07:59:14 51°13.726 2°51.919 218.1 2.9 232 11.1
2008-03-28 07:59:18 51°13.724 2°51.915 217.6 2.9 233 11.1
2008-03-28 07:59:24 51°13.721 2°51.909 217 2.9 232 11.1
2008-03-28 07:59:28 51°13.719 2°51.905 216.9 2.8 231 11.1
2008-03-28 07:59:33 51°13.717 2°51.9 216.8 2.8 233 11.1
2008-03-28 07:59:39 51°13.714 2°51.894 216.3 2.8 231 11.1
2008-03-28 07:59:44 51°13.712 2°51.89 216.5 2.8 232 11.1
2008-03-28 07:59:48 51°13.71 2°51.885 216.5 2.8 232 11.1
2008-03-28 07:59:53 51°13.707 2°51.88 216.4 2.9 231 11.1
2008-03-28 07:59:59 51°13.704 2°51.874 216.6 2.9 231 11.1
2008-03-28 08:00:04 51°13.702 2°51.87 216.6 2.9 230 11.1
2008-03-28 08:00:08 51°13.7 2°51.865 216.6 3 232 11.1
2008-03-28 08:00:14 51°13.697 2°51.859 216.5 2.9 230 11.1
2008-03-28 08:00:18 51°13.695 2°51.855 216.4 3 230 11.1
2008-03-28 08:00:24 51°13.692 2°51.849 216.3 3 231 11.1
2008-03-28 08:00:28 51°13.689 2°51.845 216.2 3 230 11.1
2008-03-28 08:00:33 51°13.687 2°51.84 216.4 3 230 11.1
2008-03-28 08:00:39 51°13.684 2°51.833 216.2 3.1 230 11.1
2008-03-28 08:00:44 51°13.681 2°51.828 216.2 3 230 11.1
2008-03-28 08:00:48 51°13.679 2°51.824 216.4 3.1 231 11.1
2008-03-28 08:00:53 51°13.676 2°51.819 216.5 3.2 230 11.1
2008-03-28 08:00:59 51°13.672 2°51.812 216.5 3.3 231 11.1
2008-03-28 08:01:04 51°13.669 2°51.807 216.6 3.3 227 11
2008-03-28 08:01:08 51°13.667 2°51.802 216.5 3.5 230 11.1
2008-03-28 08:01:14 51°13.663 2°51.795 216.4 3.5 229 11
2008-03-28 08:01:18 51°13.66 2°51.79 216.3 3.6 229 11.1
2008-03-28 08:01:24 51°13.656 2°51.783 216.3 3.7 226 11.1
2008-03-28 08:01:29 51°13.653 2°51.777 216.2 3.8 229 11.1
2008-03-28 08:01:34 51°13.649 2°51.77 216.2 3.9 227 11.1
2008-03-28 08:01:38 51°13.646 2°51.765 216.2 4 227 11.1
2008-03-28 08:01:44 51°13.642 2°51.757 216.1 4.1 226 11.1
2008-03-28 08:01:48 51°13.638 2°51.752 215.9 4.1 226 11.1
2008-03-28 08:01:53 51°13.634 2°51.745 215.8 4.2 225 11.1
2008-03-28 08:01:59 51°13.629 2°51.737 215.2 4.3 225 11.1
2008-03-28 08:02:04 51°13.625 2°51.731 214.9 4.3 224 11.1
2008-03-28 08:02:08 51°13.622 2°51.726 214.7 4.4 224 11.1
2008-03-28 08:02:13 51°13.617 2°51.719 214.2 4.4 224 11.1
2008-03-28 08:02:19 51°13.612 2°51.711 214 4.4 222 11.1
2008-03-28 08:02:24 51°13.607 2°51.704 213.8 4.5 224 11.1
2008-03-28 08:02:28 51°13.604 2°51.699 213.7 4.5 223 11.1
2008-03-28 08:02:34 51°13.598 2°51.691 213.3 4.6 223 11.1
2008-03-28 08:02:39 51°13.593 2°51.684 213.3 4.6 222 11.1
2008-03-28 08:02:44 51°13.589 2°51.678 213.3 4.7 223 11.1
2008-03-28 08:02:48 51°13.585 2°51.672 213.2 4.7 220 11.1
2008-03-28 08:02:54 51°13.579 2°51.664 213 4.7 223 11
2008-03-28 08:02:59 51°13.574 2°51.657 212.7 4.7 220 11.1
2008-03-28 08:03:04 51°13.569 2°51.65 212.8 4.8 221 11.1
2008-03-28 08:03:08 51°13.565 2°51.644 212.6 4.8 220 11
2008-03-28 08:03:13 51°13.56 2°51.637 212.6 4.9 222 11
2008-03-28 08:03:19 51°13.554 2°51.628 213.6 4.9 221 11.1
2008-03-28 08:03:24 51°13.549 2°51.62 215 4.9 224 11.1
2008-03-28 08:03:28 51°13.545 2°51.614 216.8 4.9 225 11.1
2008-03-28 08:03:34 51°13.54 2°51.605 218.4 4.9 227 11
2008-03-28 08:03:38 51°13.536 2°51.599 219.8 4.7 227 11
2008-03-28 08:03:44 51°13.531 2°51.589 221.3 4.5 229 11.1
2008-03-28 08:03:48 51°13.528 2°51.583 222.5 4.4 232 11.1
2008-03-28 08:03:54 51°13.524 2°51.573 224.1 4.2 232 11.1
2008-03-28 08:03:59 51°13.522 2°51.565 225.6 4.1 236 11.1
2008-03-28 08:04:04 51°13.519 2°51.558 226.9 3.9 237 11.1
2008-03-28 08:04:09 51°13.516 2°51.551 228.4 3.8 238 11.1
2008-03-28 08:04:14 51°13.513 2°51.544 229.9 3.7 240 11.1
2008-03-28 08:04:19 51°13.51 2°51.538 230.9 3.6 241 11.1
2008-03-28 08:04:24 51°13.508 2°51.531 232.2 3.5 242 11.1
2008-03-28 08:04:28 51°13.506 2°51.526 233.2 3.4 244 11.1
2008-03-28 08:04:33 51°13.504 2°51.52 234 3.2 245 11.1
2008-03-28 08:04:39 51°13.502 2°51.513 234.6 3.1 246 11.1
2008-03-28 08:04:44 51°13.5 2°51.507 235 3 247 11.1
2008-03-28 08:04:48 51°13.499 2°51.502 235.1 2.9 247 11.1
2008-03-28 08:04:53 51°13.498 2°51.497 235.1 2.8 248 11
2008-03-28 08:04:59 51°13.496 2°51.49 235.1 2.6 250 11.1
2008-03-28 08:05:04 51°13.495 2°51.485 235 2.5 249 11.1
2008-03-28 08:05:08 51°13.494 2°51.481 234.7 2.5 250 11.1
2008-03-28 08:05:13 51°13.492 2°51.477 234.5 2.3 249 11.1
2008-03-28 08:05:19 51°13.491 2°51.471 234.3 2.2 252 11.1
2008-03-28 08:05:24 51°13.49 2°51.467 234.2 2.1 252 11.1
2008-03-28 08:05:28 51°13.489 2°51.463 234.1 2 251 11.2
2008-03-28 08:05:33 51°13.489 2°51.459 234.1 2 252 11.1
2008-03-28 08:05:39 51°13.488 2°51.454 234.1 1.9 253 11.1
2008-03-28 08:05:44 51°13.487 2°51.45 234.5 1.9 253 11.1
2008-03-28 08:05:48 51°13.486 2°51.447 234.7 1.9 255 11.1
2008-03-28 08:05:54 51°13.486 2°51.443 235.1 1.8 255 11
2008-03-28 08:05:58 51°13.485 2°51.44 235.4 1.8 259 11.1
2008-03-28 08:06:04 51°13.484 2°51.435 236.3 1.7 255 11.1
2008-03-28 08:06:08 51°13.484 2°51.432 236.7 1.7 262 11.1
2008-03-28 08:06:13 51°13.484 2°51.429 237.5 1.6 259 11.1
2008-03-28 08:06:19 51°13.483 2°51.424 238.4 1.6 263 11.1
2008-03-28 08:06:24 51°13.483 2°51.421 239 1.6 261 11.1
2008-03-28 08:06:28 51°13.483 2°51.418 240 1.6 264 11.1
2008-03-28 08:06:33 51°13.483 2°51.414 240.7 1.6 265 11.1
2008-03-28 08:06:39 51°13.482 2°51.41 241.6 1.6 268 11.1
2008-03-28 08:06:44 51°13.482 2°51.407 242.5 1.5 266 11.1
2008-03-28 08:06:48 51°13.482 2°51.404 243.4 1.5 270 11.1
2008-03-28 08:06:54 51°13.482 2°51.4 244.2 1.5 269 11.1
2008-03-28 08:06:58 51°13.482 2°51.398 245 1.5 269 11.2
2008-03-28 08:07:04 51°13.482 2°51.394 245.9 1.4 270 11.1
2008-03-28 08:07:08 51°13.482 2°51.392 246.2 1.4 271 11.1
2008-03-28 08:07:13 51°13.482 2°51.388 246.8 1.4 273 11.1
2008-03-28 08:07:19 51°13.482 2°51.385 247.4 1.4 273 11.1
2008-03-28 08:07:24 51°13.482 2°51.382 248 1.3 273 11.1
2008-03-28 08:07:28 51°13.482 2°51.379 248.8 1.3 274 11.1
2008-03-28 08:07:33 51°13.483 2°51.376 249.4 1.4 277 11.1
2008-03-28 08:07:39 51°13.483 2°51.373 249.9 1.3 272 11.1
2008-03-28 08:07:44 51°13.483 2°51.37 250.3 1.4 276 11.1
2008-03-28 08:07:48 51°13.483 2°51.368 250.6 1.3 274 11.1
2008-03-28 08:07:54 51°13.483 2°51.364 250.9 1.4 279 11.1
2008-03-28 08:07:58 51°13.483 2°51.362 251.1 1.3 277 11.1
2008-03-28 08:08:04 51°13.484 2°51.358 251.7 1.3 279 11.2
2008-03-28 08:08:09 51°13.484 2°51.355 252.1 1.3 277 11.2
2008-03-28 08:08:14 51°13.484 2°51.353 252.5 1.3 278 11.1
2008-03-28 08:08:18 51°13.484 2°51.35 252.9 1.3 278 11.2
2008-03-28 08:08:24 51°13.484 2°51.347 253.2 1.3 277 11.2
2008-03-28 08:08:28 51°13.485 2°51.345 253.6 1.3 280 11.2
2008-03-28 08:08:33 51°13.485 2°51.342 253.9 1.3 277 11.2
2008-03-28 08:08:39 51°13.485 2°51.339 254.1 1.3 279 11.1
2008-03-28 08:08:44 51°13.485 2°51.336 254.4 1.3 276 11.2
2008-03-28 08:08:48 51°13.485 2°51.334 254.7 1.3 278 11.2
2008-03-28 08:08:53 51°13.485 2°51.331 254.9 1.2 274 11.1
2008-03-28 08:08:59 51°13.486 2°51.328 255.1 1.3 278 11.2
2008-03-28 08:09:04 51°13.486 2°51.325 255.1 1.2 273 11.2
2008-03-28 08:09:08 51°13.486 2°51.323 255.2 1.2 278 11.2
2008-03-28 08:09:14 51°13.486 2°51.32 255.2 1.2 276 11.2
2008-03-28 08:09:18 51°13.487 2°51.318 255.2 1.2 279 11.2
2008-03-28 08:09:24 51°13.487 2°51.315 255.3 1.2 275 11.2
2008-03-28 08:09:28 51°13.487 2°51.312 255.4 1.2 278 11.2
2008-03-28 08:09:33 51°13.487 2°51.31 255.5 1.2 277 11.2
2008-03-28 08:09:39 51°13.487 2°51.307 255.8 1.2 276 11.1
2008-03-28 08:09:44 51°13.488 2°51.304 256.1 1.2 279 11.1
2008-03-28 08:09:48 51°13.488 2°51.302 256.3 1.2 277 11.1
2008-03-28 08:09:53 51°13.488 2°51.3 256.8 1.2 283 11.2
2008-03-28 08:09:59 51°13.488 2°51.297 257.2 1.1 276 11.2
2008-03-28 08:10:04 51°13.489 2°51.294 257.5 1.2 282 11.1
2008-03-28 08:10:08 51°13.489 2°51.292 257.6 1.1 277 11.2
2008-03-28 08:10:14 51°13.489 2°51.289 257.8 1.2 283 11.1
2008-03-28 08:10:18 51°13.489 2°51.287 258.1 1.1 279 11.1
2008-03-28 08:10:24 51°13.49 2°51.284 258.1 1.2 284 11.1
2008-03-28 08:10:28 51°13.49 2°51.282 258.3 1.1 280 11.1
2008-03-28 08:10:34 51°13.49 2°51.279 258.5 1.2 285 11.2
2008-03-28 08:10:39 51°13.491 2°51.277 258.9 1.1 281 11.1
2008-03-28 08:10:44 51°13.491 2°51.274 259.2 1.2 284 11.2
2008-03-28 08:10:48 51°13.491 2°51.272 259.9 1.1 283 11.1
2008-03-28 08:10:53 51°13.492 2°51.27 260.3 1.2 285 11.2
2008-03-28 08:10:59 51°13.492 2°51.267 260.7 1.1 283 11.2
2008-03-28 08:11:04 51°13.492 2°51.264 261.1 1.1 284 11.2
2008-03-28 08:11:08 51°13.493 2°51.262 261.4 1.1 282 11.2
2008-03-28 08:11:13 51°13.493 2°51.26 261.6 1.2 288 11.2
2008-03-28 08:11:19 51°13.494 2°51.257 261.7 1.1 280 11.2
2008-03-28 08:11:24 51°13.494 2°51.254 262 1.2 283 11.2
2008-03-28 08:11:28 51°13.494 2°51.252 262 1.3 278 11.2
2008-03-28 08:11:34 51°13.494 2°51.248 261.2 1.5 279 11.2
2008-03-28 08:11:39 51°13.495 2°51.245 260 1.5 274 11.2
2008-03-28 08:11:44 51°13.495 2°51.241 258.1 1.6 276 11.2
2008-03-28 08:11:48 51°13.495 2°51.238 256.8 1.7 271 11.1
2008-03-28 08:11:54 51°13.495 2°51.233 254.8 1.9 271 11.2
2008-03-28 08:11:59 51°13.495 2°51.229 252 2 266 11.2
2008-03-28 08:12:04 51°13.494 2°51.224 249.4 2.1 262 11.1
2008-03-28 08:12:08 51°13.494 2°51.221 246.7 2.2 260 11.2
2008-03-28 08:12:13 51°13.493 2°51.216 243.2 2.3 255 11.2
2008-03-28 08:12:18 51°13.492 2°51.211 240.1 2.3 253 11.1
2008-03-28 08:12:24 51°13.491 2°51.205 236.5 2.5 252 11.2
2008-03-28 08:12:28 51°13.49 2°51.201 233 2.5 247 11.2
2008-03-28 08:12:34 51°13.488 2°51.195 230 2.6 245 11.2
2008-03-28 08:12:38 51°13.486 2°51.19 227.9 2.9 242 11.2
2008-03-28 08:12:44 51°13.484 2°51.183 226.8 3.3 239 11.2
2008-03-28 08:12:48 51°13.481 2°51.177 226.3 3.7 238 11.2